NCAR-RAP Real-Time Weather Data

Output produced by METARs form (08 May 2021  16:26 UTC)
found at http://weather.rap.ucar.edu/surface/
 
KGUY 081553Z AUTO 22018KT 10SM CLR 26/12 A2964 RMK AO2 PK WND 23026/1502 SLP994 T02610122
KGUY 081453Z AUTO 23016G25KT 10SM CLR 23/11 A2967 RMK AO2 SLP005 T02280111 58019
KGUY 081353Z AUTO 21014KT 10SM CLR 18/11 A2968 RMK AO2 SLP016 T01830106
KGUY 081253Z AUTO 22011KT 10SM CLR 16/10 A2972 RMK AO2 SLP027 T01610100
KGUY 081153Z AUTO 22008KT 10SM CLR 14/10 A2973 RMK AO2 SLP031 70001 T01440100 10172 20139 56013
KGUY 081053Z AUTO 00000KT 10SM CLR 14/11 A2974 RMK AO2 SLP036 T01440106
KGUY 080953Z AUTO 20009KT 10SM CLR 15/11 A2975 RMK AO2 SLP038 T01500111
KGUY 080853Z AUTO 19010KT 10SM CLR 16/12 A2977 RMK AO2 SLP043 T01560117 56018
KGUY 080753Z AUTO 19017KT 10SM CLR 17/11 A2978 RMK AO2 PK WND 20030/0725 SLP039 T01720111
KGUY 080653Z AUTO 20014KT 10SM CLR 16/12 A2981 RMK AO2 SLP050 T01610117
KGUY 080553Z AUTO 19008KT 10SM CLR 14/11 A2983 RMK AO2 SLP058 T01440111 10222 20144 403000106 58005
KGUY 080453Z AUTO 17010KT 10SM CLR 16/12 A2984 RMK AO2 SLP064 T01560117
KGUY 080353Z AUTO 16015G22KT 10SM CLR 17/12 A2984 RMK AO2 PK WND 16027/0321 SLP067 T01720117
KGUY 080253Z AUTO 18018G24KT 10SM CLR 18/12 A2984 RMK AO2 SLP068 T01830117 53003
KGUY 080153Z AUTO 18009KT 10SM CLR 18/12 A2981 RMK AO2 SLP060 T01780122